createdAt,value
2019-01-09T00:01:24.703Z,3.48
2019-01-09T00:03:52.069Z,3.49
2019-01-09T00:06:19.279Z,3.53
2019-01-09T00:08:46.829Z,4.09
2019-01-09T00:11:13.994Z,3.72
2019-01-09T00:13:41.276Z,3.63
2019-01-09T00:16:08.549Z,3.69
2019-01-09T00:18:35.631Z,3.78
2019-01-09T00:21:02.912Z,3.64
2019-01-09T00:23:29.953Z,3.65
2019-01-09T00:25:57.003Z,3.72
2019-01-09T00:28:23.803Z,3.65
2019-01-09T00:30:50.981Z,3.64
2019-01-09T00:33:18.290Z,3.62
2019-01-09T00:35:45.925Z,3.63
2019-01-09T00:38:13.156Z,3.66
2019-01-09T00:40:40.194Z,3.64
2019-01-09T00:43:07.677Z,3.60
2019-01-09T00:45:34.922Z,3.65
2019-01-09T00:48:01.598Z,3.58
2019-01-09T00:50:29.549Z,3.63
2019-01-09T00:52:56.560Z,3.62
2019-01-09T00:55:24.325Z,3.65
2019-01-09T00:57:52.598Z,3.61
2019-01-09T01:00:19.712Z,3.61
2019-01-09T01:03:40.775Z,3.57
2019-01-09T01:06:45.502Z,3.60
2019-01-09T01:10:02.715Z,3.60
2019-01-09T01:13:20.070Z,3.55
2019-01-09T01:16:23.943Z,3.54
2019-01-09T01:19:22.942Z,3.52
2019-01-09T01:21:56.750Z,3.98
2019-01-09T01:25:12.239Z,3.61
2019-01-09T01:27:57.273Z,3.52
2019-01-09T01:31:09.284Z,3.48
2019-01-09T01:34:07.166Z,3.44
2019-01-09T01:37:19.034Z,3.44
2019-01-09T01:40:21.341Z,3.44
2019-01-09T01:43:20.087Z,3.41
2019-01-09T01:46:28.009Z,3.38
2019-01-09T01:49:45.010Z,3.42
2019-01-09T01:53:00.172Z,3.39
2019-01-09T01:56:09.564Z,3.30
2019-01-09T01:59:21.369Z,3.28
2019-01-09T02:02:27.365Z,3.26
2019-01-09T02:05:19.942Z,3.30
2019-01-09T02:08:14.926Z,3.32
2019-01-09T02:11:35.989Z,3.30
2019-01-09T02:14:14.180Z,3.27
2019-01-09T02:17:33.897Z,3.30
2019-01-09T02:20:10.252Z,3.31
2019-01-09T02:23:24.626Z,3.43
2019-01-09T02:26:18.603Z,3.49
2019-01-09T02:29:34.061Z,3.52
2019-01-09T02:32:39.865Z,3.43
2019-01-09T02:35:07.599Z,3.55
2019-01-09T02:37:34.510Z,3.56
2019-01-09T02:40:01.455Z,3.50
2019-01-09T02:42:28.434Z,3.46
2019-01-09T02:44:56.032Z,3.31
2019-01-09T02:47:23.094Z,3.23
2019-01-09T02:49:50.317Z,3.23
2019-01-09T02:52:17.419Z,3.25
2019-01-09T02:54:44.635Z,3.28
2019-01-09T02:57:11.737Z,3.27
2019-01-09T02:59:39.582Z,3.24
2019-01-09T03:02:06.820Z,3.24
2019-01-09T03:04:33.501Z,3.25
2019-01-09T03:07:00.298Z,3.27
2019-01-09T03:09:27.078Z,3.25
2019-01-09T03:11:54.325Z,3.30
2019-01-09T03:14:21.453Z,3.27
2019-01-09T03:16:48.738Z,3.28
2019-01-09T03:19:16.384Z,3.23
2019-01-09T03:21:43.059Z,3.56
2019-01-09T03:24:11.268Z,3.38
2019-01-09T03:29:28.135Z,3.36
2019-01-09T03:31:55.521Z,3.33
2019-01-09T03:34:22.915Z,3.26
2019-01-09T03:36:49.939Z,3.28
2019-01-09T03:39:16.951Z,3.30
2019-01-09T03:41:44.514Z,3.29
2019-01-09T03:44:11.402Z,3.29
2019-01-09T03:46:38.647Z,3.36
2019-01-09T03:49:06.550Z,3.28
2019-01-09T03:51:33.311Z,3.30
2019-01-09T03:54:00.078Z,3.30
2019-01-09T03:56:27.160Z,3.30
2019-01-09T03:58:54.751Z,3.32
2019-01-09T04:01:22.942Z,3.29
2019-01-09T04:03:49.953Z,3.32
2019-01-09T04:06:17.011Z,3.30
2019-01-09T04:08:44.562Z,3.32
2019-01-09T04:11:11.597Z,3.34
2019-01-09T04:13:39.778Z,3.31
2019-01-09T04:16:06.569Z,3.34
2019-01-09T04:18:33.302Z,3.35
2019-01-09T04:21:00.529Z,3.33
2019-01-09T04:23:27.548Z,3.37
2019-01-09T04:25:54.226Z,3.37
2019-01-09T04:28:21.601Z,3.33
2019-01-09T04:30:48.180Z,3.35
2019-01-09T04:33:15.298Z,3.33
2019-01-09T04:35:42.389Z,3.33
2019-01-09T04:38:10.182Z,3.37
2019-01-09T04:40:37.203Z,3.38
2019-01-09T04:43:04.611Z,3.36
2019-01-09T04:45:31.919Z,3.34
2019-01-09T04:47:59.366Z,3.33
2019-01-09T04:50:26.051Z,3.33
2019-01-09T04:52:53.019Z,3.33
2019-01-09T04:55:20.505Z,3.33
2019-01-09T04:57:47.818Z,3.34
2019-01-09T05:00:15.086Z,3.31
2019-01-09T05:02:42.617Z,3.32
2019-01-09T05:05:10.676Z,3.28
2019-01-09T05:07:38.442Z,3.32
2019-01-09T05:10:06.388Z,3.27
2019-01-09T05:12:33.088Z,3.26
2019-01-09T05:14:59.784Z,3.29
2019-01-09T05:17:27.897Z,3.22
2019-01-09T05:19:54.580Z,3.26
2019-01-09T05:22:21.808Z,3.22
2019-01-09T05:24:48.849Z,3.26
2019-01-09T05:27:16.445Z,3.23
2019-01-09T05:29:43.933Z,3.20
2019-01-09T05:32:10.997Z,3.17
2019-01-09T05:34:37.805Z,3.19
2019-01-09T05:37:09.682Z,3.16
2019-01-09T05:39:39.555Z,3.19
2019-01-09T05:42:03.245Z,3.21
2019-01-09T05:44:30.160Z,3.19
2019-01-09T05:46:57.524Z,3.12
2019-01-09T05:49:24.232Z,3.15
2019-01-09T05:51:51.498Z,3.11
2019-01-09T05:54:18.423Z,3.11
2019-01-09T05:56:45.152Z,3.09
2019-01-09T05:59:12.744Z,3.12
2019-01-09T06:01:40.309Z,3.10
2019-01-09T06:04:06.990Z,3.04
2019-01-09T06:06:34.368Z,3.03
2019-01-09T06:09:01.155Z,2.98
2019-01-09T06:11:27.922Z,2.98
2019-01-09T06:13:55.826Z,2.98
2019-01-09T06:16:23.430Z,3.03
2019-01-09T06:18:50.118Z,3.03
2019-01-09T06:21:17.063Z,3.05
2019-01-09T06:23:43.982Z,3.04
2019-01-09T06:26:11.797Z,3.03
2019-01-09T06:28:38.589Z,3.08
2019-01-09T06:31:06.123Z,3.08
2019-01-09T06:33:33.159Z,3.09
2019-01-09T06:36:00.837Z,3.08
2019-01-09T06:38:27.612Z,3.04
2019-01-09T06:40:54.295Z,3.05
2019-01-09T06:43:21.330Z,3.06
2019-01-09T06:45:47.985Z,3.04
2019-01-09T06:48:14.674Z,3.12
2019-01-09T06:50:41.967Z,3.12
2019-01-09T06:53:09.011Z,3.22
2019-01-09T06:55:35.728Z,3.11
2019-01-09T06:58:02.400Z,3.11
2019-01-09T07:00:29.070Z,3.14
2019-01-09T07:02:56.578Z,3.17
2019-01-09T07:05:24.548Z,3.16
2019-01-09T07:07:51.850Z,3.15
2019-01-09T07:10:18.619Z,3.19
2019-01-09T07:12:45.297Z,3.19
2019-01-09T07:15:13.811Z,3.20
2019-01-09T07:17:40.657Z,3.24
2019-01-09T07:20:07.853Z,3.24
2019-01-09T07:22:35.170Z,3.28
2019-01-09T07:25:03.130Z,3.23
2019-01-09T07:27:30.633Z,3.27
2019-01-09T07:29:58.195Z,3.28
2019-01-09T07:32:25.542Z,3.33
2019-01-09T07:34:52.228Z,3.31
2019-01-09T07:37:19.356Z,3.27
2019-01-09T07:39:46.585Z,3.34
2019-01-09T07:42:14.260Z,3.33
2019-01-09T07:44:41.302Z,3.28
2019-01-09T07:47:08.090Z,3.28
2019-01-09T07:49:35.398Z,3.34
2019-01-09T07:52:03.466Z,3.33
2019-01-09T07:54:30.499Z,3.38
2019-01-09T07:56:57.980Z,3.50
2019-01-09T07:59:25.219Z,3.43
2019-01-09T08:01:51.941Z,3.42
2019-01-09T08:04:18.863Z,3.45
2019-01-09T08:06:46.970Z,3.47
2019-01-09T08:09:13.625Z,3.51
2019-01-09T08:11:40.969Z,3.54
2019-01-09T08:14:08.425Z,3.50
2019-01-09T08:16:35.462Z,3.42
2019-01-09T08:19:02.978Z,3.53
2019-01-09T08:21:30.166Z,3.57
2019-01-09T08:23:56.965Z,3.54
2019-01-09T08:26:24.586Z,3.60
2019-01-09T08:28:51.307Z,3.57
2019-01-09T08:31:18.262Z,3.55
2019-01-09T08:33:45.058Z,3.45
2019-01-09T08:36:12.476Z,3.40
2019-01-09T08:38:39.624Z,3.31
2019-01-09T08:41:07.937Z,3.30
2019-01-09T08:43:34.620Z,3.32
2019-01-09T08:46:02.030Z,3.32
2019-01-09T08:48:29.809Z,3.32
2019-01-09T08:50:57.086Z,3.34
2019-01-09T08:53:24.443Z,3.40
2019-01-09T08:55:51.468Z,3.30
2019-01-09T08:58:18.163Z,3.34
2019-01-09T09:00:45.937Z,3.33
2019-01-09T09:03:13.240Z,3.24
2019-01-09T09:05:40.012Z,3.26
2019-01-09T09:08:12.208Z,3.31
2019-01-09T09:10:36.879Z,3.53
2019-01-09T09:13:04.851Z,3.44
2019-01-09T09:15:32.388Z,3.24
2019-01-09T09:17:59.647Z,3.16
2019-01-09T09:20:27.970Z,3.21
2019-01-09T09:22:54.653Z,3.18
2019-01-09T09:25:21.685Z,3.14
2019-01-09T09:27:49.019Z,3.06
2019-01-09T09:30:15.932Z,3.11
2019-01-09T09:32:43.361Z,3.13
2019-01-09T09:35:10.494Z,3.16
2019-01-09T09:37:38.685Z,3.02
2019-01-09T09:40:06.979Z,3.01
2019-01-09T09:42:34.354Z,3.02
2019-01-09T09:45:01.766Z,2.98
2019-01-09T09:47:28.570Z,3.02
2019-01-09T09:49:55.801Z,3.06
2019-01-09T09:52:22.495Z,3.13
2019-01-09T09:54:50.298Z,3.11
2019-01-09T09:57:16.998Z,3.14
2019-01-09T09:59:43.763Z,3.21
2019-01-09T10:02:10.809Z,3.17
2019-01-09T10:04:38.951Z,3.17
2019-01-09T10:07:05.716Z,3.18
2019-01-09T10:09:32.996Z,3.32
2019-01-09T10:12:00.211Z,3.19
2019-01-09T10:14:26.895Z,3.14
2019-01-09T10:16:53.914Z,3.15
2019-01-09T10:19:20.883Z,3.05
2019-01-09T10:21:47.662Z,3.01
2019-01-09T10:24:14.365Z,3.04
2019-01-09T10:26:41.992Z,2.99
2019-01-09T10:29:09.317Z,3.03
2019-01-09T10:31:36.373Z,3.10
2019-01-09T10:34:03.542Z,3.33
2019-01-09T10:36:30.641Z,3.37
2019-01-09T10:38:57.337Z,3.39
2019-01-09T10:41:24.327Z,3.39
2019-01-09T10:43:51.129Z,3.42
2019-01-09T10:46:18.322Z,3.43
2019-01-09T10:48:45.105Z,3.38
2019-01-09T10:51:14.261Z,3.35
2019-01-09T10:53:41.206Z,3.41
2019-01-09T10:56:09.059Z,3.41
2019-01-09T10:58:35.847Z,3.33
2019-01-09T11:01:02.945Z,3.20
2019-01-09T11:03:29.632Z,3.44
2019-01-09T11:05:56.832Z,3.36
2019-01-09T11:08:24.256Z,3.33
2019-01-09T11:10:51.456Z,3.40
2019-01-09T11:13:18.129Z,3.34
2019-01-09T11:15:45.277Z,3.40
2019-01-09T11:18:12.482Z,3.38
2019-01-09T11:20:39.177Z,3.46
2019-01-09T11:23:06.531Z,3.45
2019-01-09T11:25:33.598Z,3.38
2019-01-09T11:28:01.629Z,3.46
2019-01-09T11:30:28.366Z,3.44
2019-01-09T11:32:55.406Z,3.42
2019-01-09T11:35:24.189Z,3.45
2019-01-09T11:37:53.371Z,3.34
2019-01-09T11:40:20.306Z,3.33
2019-01-09T11:42:47.102Z,3.29
2019-01-09T11:45:16.174Z,3.34
2019-01-09T11:47:43.612Z,3.25
2019-01-09T11:50:11.546Z,3.24
2019-01-09T11:52:39.082Z,3.32
2019-01-09T11:55:08.586Z,3.37
2019-01-09T11:57:35.375Z,3.39
2019-01-09T12:00:03.346Z,3.41
2019-01-09T12:02:31.248Z,3.44
2019-01-09T12:04:58.797Z,3.40
2019-01-09T12:07:26.101Z,3.47
2019-01-09T12:09:52.918Z,3.43
2019-01-09T12:12:20.570Z,3.47
2019-01-09T12:14:47.352Z,3.40
2019-01-09T12:17:14.838Z,3.38
2019-01-09T12:19:42.342Z,3.42
2019-01-09T12:22:09.134Z,3.46
2019-01-09T12:24:36.928Z,3.40
2019-01-09T12:27:04.083Z,3.46
2019-01-09T12:29:30.872Z,3.45
2019-01-09T12:31:57.572Z,3.48
2019-01-09T12:34:25.126Z,3.46
2019-01-09T12:36:52.460Z,3.45
2019-01-09T12:39:19.706Z,3.53
2019-01-09T12:41:46.587Z,3.57
2019-01-09T12:44:14.429Z,3.47
2019-01-09T12:46:41.742Z,3.46
2019-01-09T12:49:08.839Z,3.48
2019-01-09T12:51:35.507Z,3.47
2019-01-09T12:54:02.963Z,3.47
2019-01-09T12:56:30.168Z,3.51
2019-01-09T12:58:56.930Z,3.56
2019-01-09T13:01:24.056Z,3.46
2019-01-09T13:03:50.993Z,3.38
2019-01-09T13:06:18.038Z,3.37
2019-01-09T13:08:46.255Z,3.44
2019-01-09T13:11:14.288Z,3.36
2019-01-09T13:13:41.541Z,3.37
2019-01-09T13:16:08.926Z,3.33
2019-01-09T13:18:36.662Z,3.37
2019-01-09T13:21:03.441Z,3.43
2019-01-09T13:23:30.646Z,3.37
2019-01-09T13:25:58.045Z,3.40
2019-01-09T13:28:25.470Z,3.34
2019-01-09T13:30:52.178Z,3.31
2019-01-09T13:33:18.857Z,3.35
2019-01-09T13:35:46.191Z,3.31
2019-01-09T13:38:14.458Z,3.36
2019-01-09T13:40:41.684Z,3.41
2019-01-09T13:43:09.524Z,3.42
2019-01-09T13:45:36.383Z,3.42
2019-01-09T13:48:03.928Z,3.44
2019-01-09T13:50:30.697Z,3.43
2019-01-09T13:52:57.928Z,3.34
2019-01-09T13:55:25.169Z,3.31
2019-01-09T13:57:52.413Z,3.31
2019-01-09T14:00:22.249Z,3.34
2019-01-09T14:02:50.218Z,3.41
2019-01-09T14:05:17.473Z,3.46
2019-01-09T14:07:44.278Z,3.49
2019-01-09T14:10:13.877Z,3.38
2019-01-09T14:12:40.939Z,3.41
2019-01-09T14:15:10.201Z,3.39
2019-01-09T14:17:36.945Z,3.40
2019-01-09T14:20:04.186Z,3.39
2019-01-09T14:22:33.044Z,3.52
2019-01-09T14:25:00.411Z,3.48
2019-01-09T14:27:27.109Z,3.42
2019-01-09T14:29:54.395Z,3.42
2019-01-09T14:32:21.558Z,3.41
2019-01-09T14:34:48.791Z,3.41
2019-01-09T14:37:15.795Z,3.38
2019-01-09T14:39:47.986Z,3.38
2019-01-09T14:42:12.074Z,3.46
2019-01-09T14:44:40.581Z,3.45
2019-01-09T14:47:07.682Z,3.41
2019-01-09T14:49:35.019Z,3.41
2019-01-09T14:52:01.800Z,3.45
2019-01-09T14:54:28.733Z,3.44
2019-01-09T14:56:55.877Z,3.39
2019-01-09T14:59:23.564Z,3.48
2019-01-09T15:01:50.458Z,3.43
2019-01-09T15:04:17.800Z,3.37
2019-01-09T15:06:45.474Z,3.37
2019-01-09T15:09:13.445Z,3.36
2019-01-09T15:11:40.250Z,3.31
2019-01-09T15:14:07.486Z,3.33
2019-01-09T15:16:34.410Z,3.34
2019-01-09T15:19:01.186Z,3.31
2019-01-09T15:21:28.150Z,3.30
2019-01-09T15:23:55.428Z,3.33
2019-01-09T15:26:22.693Z,3.33
2019-01-09T15:28:50.552Z,3.28
2019-01-09T15:31:17.998Z,3.26
2019-01-09T15:33:44.682Z,3.22
2019-01-09T15:36:11.807Z,3.22
2019-01-09T15:38:39.141Z,3.22
2019-01-09T15:41:06.530Z,3.25
2019-01-09T15:43:33.994Z,3.24
2019-01-09T15:46:01.349Z,3.21
2019-01-09T15:48:28.918Z,3.26
2019-01-09T15:50:57.072Z,3.24
2019-01-09T15:53:23.980Z,3.27
2019-01-09T15:55:51.201Z,3.28
2019-01-09T15:58:19.342Z,3.32
2019-01-09T16:00:48.952Z,3.24
2019-01-09T16:03:16.201Z,3.27
2019-01-09T16:05:45.629Z,3.25
2019-01-09T16:08:12.867Z,3.31
2019-01-09T16:10:41.232Z,3.25
2019-01-09T16:13:08.301Z,3.21
2019-01-09T16:15:35.326Z,3.22
2019-01-09T16:18:03.461Z,3.26
2019-01-09T16:20:30.381Z,3.22
2019-01-09T16:22:57.051Z,3.21
2019-01-09T16:25:24.634Z,3.23
2019-01-09T16:27:51.648Z,3.18
2019-01-09T16:30:33.876Z,3.18
2019-01-09T16:32:58.059Z,3.18
2019-01-09T16:35:25.638Z,3.20
2019-01-09T16:37:52.911Z,3.15
2019-01-09T16:40:23.537Z,3.18
2019-01-09T16:42:49.543Z,3.13
2019-01-09T16:45:18.518Z,3.14
2019-01-09T16:47:45.946Z,3.20
2019-01-09T16:50:15.526Z,3.17
2019-01-09T16:52:43.064Z,3.19
2019-01-09T16:55:10.488Z,3.18
2019-01-09T16:57:38.252Z,3.45
2019-01-09T17:00:11.667Z,3.21
2019-01-09T17:02:41.177Z,3.17
2019-01-09T17:05:08.019Z,3.15
2019-01-09T17:07:35.771Z,3.24
2019-01-09T17:10:04.609Z,3.16
2019-01-09T17:12:31.658Z,3.14
2019-01-09T17:14:58.938Z,3.15
2019-01-09T17:17:26.206Z,3.12
2019-01-09T17:19:54.597Z,3.18
2019-01-09T17:22:21.378Z,3.18
2019-01-09T17:24:48.955Z,3.15
2019-01-09T17:27:16.233Z,3.19
2019-01-09T17:29:43.055Z,3.14
2019-01-09T17:32:10.178Z,3.18
2019-01-09T17:34:37.757Z,3.18
2019-01-09T17:37:05.023Z,3.18
2019-01-09T17:39:32.240Z,3.15
2019-01-09T17:41:59.562Z,3.60
2019-01-09T17:44:26.710Z,3.90
2019-01-09T17:46:55.287Z,3.36
2019-01-09T17:49:22.790Z,3.17
2019-01-09T17:51:50.328Z,3.12
2019-01-09T17:54:17.711Z,3.10
2019-01-09T17:56:44.998Z,3.15
2019-01-09T17:59:12.680Z,3.10
2019-01-09T18:01:39.982Z,3.09
2019-01-09T18:04:07.753Z,3.06
2019-01-09T18:06:35.408Z,3.05
2019-01-09T18:09:06.624Z,3.07
2019-01-09T18:11:34.288Z,3.06
2019-01-09T18:14:01.083Z,3.04
2019-01-09T18:16:28.541Z,3.07
2019-01-09T18:18:55.307Z,3.09
2019-01-09T18:21:22.625Z,3.09
2019-01-09T18:23:50.019Z,3.06
2019-01-09T18:26:17.527Z,3.09
2019-01-09T18:28:46.518Z,3.01
2019-01-09T18:31:58.644Z,3.23
2019-01-09T18:34:33.821Z,3.09
2019-01-09T18:37:41.717Z,3.09
2019-01-09T18:40:58.707Z,3.03
2019-01-09T18:43:58.218Z,3.08
2019-01-09T18:46:47.960Z,3.12
2019-01-09T18:49:43.608Z,3.05
2019-01-09T18:52:47.691Z,3.21
2019-01-09T18:55:15.067Z,3.08
2019-01-09T18:57:42.753Z,3.22
2019-01-09T19:00:17.518Z,3.21
2019-01-09T19:02:44.310Z,3.21
2019-01-09T19:05:11.487Z,3.22
2019-01-09T19:07:41.994Z,3.40
2019-01-09T19:10:14.143Z,3.36
2019-01-09T19:12:42.334Z,3.39
2019-01-09T19:15:09.659Z,3.23
2019-01-09T19:17:36.594Z,3.23
2019-01-09T19:20:04.979Z,3.12
2019-01-09T19:22:32.658Z,3.13
2019-01-09T19:25:00.049Z,3.16
2019-01-09T19:27:27.084Z,3.05
2019-01-09T19:29:55.127Z,2.98
2019-01-09T19:32:22.600Z,3.00
2019-01-09T19:34:49.892Z,2.99
2019-01-09T19:37:18.668Z,3.01
2019-01-09T19:39:46.207Z,2.45
2019-01-09T19:42:13.265Z,3.03
2019-01-09T19:44:40.476Z,2.99
2019-01-09T19:47:08.474Z,3.04
2019-01-09T19:49:35.994Z,2.99
2019-01-09T19:52:02.996Z,3.00
2019-01-09T19:54:30.745Z,2.94
2019-01-09T19:56:57.870Z,2.87
2019-01-09T19:59:25.332Z,2.91
2019-01-09T20:01:53.210Z,2.98
2019-01-09T20:04:20.776Z,2.95
2019-01-09T20:06:47.681Z,2.85
2019-01-09T20:09:14.927Z,2.79
2019-01-09T20:11:42.137Z,2.77
2019-01-09T20:14:10.197Z,2.77
2019-01-09T20:16:37.776Z,2.81
2019-01-09T20:19:06.874Z,2.82
2019-01-09T20:21:34.292Z,2.83
2019-01-09T20:24:01.809Z,2.79
2019-01-09T20:26:28.791Z,2.75
2019-01-09T20:28:56.535Z,2.71
2019-01-09T20:31:24.410Z,2.74
2019-01-09T20:33:51.526Z,2.76
2019-01-09T20:36:18.707Z,2.77
2019-01-09T20:38:47.120Z,2.81
2019-01-09T20:41:14.260Z,2.73
2019-01-09T20:43:40.884Z,2.76
2019-01-09T20:46:10.285Z,2.82
2019-01-09T20:48:38.351Z,2.70
2019-01-09T20:51:06.285Z,2.73
2019-01-09T20:53:33.502Z,2.69
2019-01-09T20:56:00.332Z,2.75
2019-01-09T20:58:27.589Z,2.75
2019-01-09T21:00:54.855Z,2.72
2019-01-09T21:03:22.608Z,2.59
2019-01-09T21:05:51.546Z,2.61
2019-01-09T21:08:18.422Z,2.64
2019-01-09T21:10:45.640Z,2.68
2019-01-09T21:13:12.517Z,2.70
2019-01-09T21:15:39.206Z,2.71
2019-01-09T21:18:06.339Z,2.72
2019-01-09T21:20:34.381Z,2.70
2019-01-09T21:23:01.138Z,2.76
2019-01-09T21:25:27.994Z,3.56
2019-01-09T21:27:55.300Z,4.74
2019-01-09T21:30:23.116Z,3.62
2019-01-09T21:32:49.918Z,3.30
2019-01-09T21:35:16.673Z,2.90
2019-01-09T21:37:43.626Z,2.84
2019-01-09T21:40:14.497Z,2.85
2019-01-09T21:42:41.478Z,2.79
2019-01-09T21:45:08.695Z,2.75
2019-01-09T21:47:35.679Z,2.68
2019-01-09T21:50:03.793Z,2.69
2019-01-09T21:52:30.594Z,2.61
2019-01-09T21:54:57.307Z,2.59
2019-01-09T21:57:24.214Z,3.17
2019-01-09T21:59:50.870Z,3.20
2019-01-09T22:02:18.754Z,2.78
2019-01-09T22:04:45.632Z,2.73
2019-01-09T22:07:15.367Z,2.57
2019-01-09T22:09:42.241Z,2.55
2019-01-09T22:12:09.303Z,2.53
2019-01-09T22:14:35.970Z,2.56
2019-01-09T22:17:03.104Z,2.50
2019-01-09T22:19:30.312Z,2.42
2019-01-09T22:21:56.991Z,2.40
2019-01-09T22:24:23.653Z,2.47
2019-01-09T22:26:50.416Z,2.42
2019-01-09T22:29:17.231Z,3.36
2019-01-09T22:31:43.989Z,3.38
2019-01-09T22:34:10.900Z,2.79
2019-01-09T22:36:37.696Z,2.74
2019-01-09T22:39:05.852Z,2.58
2019-01-09T22:41:32.927Z,2.57
2019-01-09T22:44:00.564Z,2.50
2019-01-09T22:46:27.603Z,2.51
2019-01-09T22:48:54.858Z,2.47
2019-01-09T22:51:21.786Z,2.49
2019-01-09T22:53:49.624Z,2.45
2019-01-09T22:56:16.463Z,2.46
2019-01-09T22:58:43.647Z,2.36
2019-01-09T23:01:17.642Z,2.47
2019-01-09T23:03:44.606Z,2.61
2019-01-09T23:06:13.257Z,4.03
2019-01-09T23:08:40.013Z,3.32
2019-01-09T23:11:06.809Z,2.66
2019-01-09T23:13:34.064Z,2.56
2019-01-09T23:16:01.093Z,2.55
2019-01-09T23:18:27.912Z,2.36
2019-01-09T23:20:54.670Z,2.42
2019-01-09T23:23:22.601Z,2.38
2019-01-09T23:25:49.693Z,2.35
2019-01-09T23:28:16.546Z,2.43
2019-01-09T23:30:43.360Z,2.36
2019-01-09T23:33:11.092Z,2.31
2019-01-09T23:35:38.984Z,2.33
2019-01-09T23:38:07.156Z,2.29
2019-01-09T23:40:34.292Z,2.26
2019-01-09T23:43:01.106Z,2.28
2019-01-09T23:45:28.185Z,2.18
2019-01-09T23:47:55.495Z,2.12
2019-01-09T23:50:22.792Z,2.16
2019-01-09T23:52:50.223Z,2.22
2019-01-09T23:55:17.940Z,2.17
2019-01-09T23:57:45.543Z,2.25
